Time;durP1;ratioP1;P1;durP2;ratioP2;P2;SDS_P1;SDS_P2;PMS_P1;PMS_P2;Temp;Humidity;BMP_temperature;BMP_pressure;BME280_temperature;BME280_humidity;BME280_pressure;Samples;Min_cycle;Max_cycle;Signal;HPM_P1;HPM_P2
2023/01/19 00:00:43;;;;;;;18.45;12.23;;;2.70;70.50;;;;;;5073384;28;20412;-74
2023/01/19 00:03:14;;;;;;;21.65;12.25;;;2.60;72.40;;;;;;5073536;28;20376;-73
2023/01/19 00:05:43;;;;;;;17.90;12.52;;;2.70;72.20;;;;;;5073929;28;20947;-74
2023/01/19 00:08:15;;;;;;;20.33;12.50;;;2.50;72.80;;;;;;5080455;28;20387;-75
2023/01/19 00:10:46;;;;;;;19.80;12.38;;;2.40;73.70;;;;;;5080541;28;20906;-75
2023/01/19 00:13:12;;;;;;;22.63;13.00;;;2.40;74.40;;;;;;5081344;28;20388;-76
2023/01/19 00:15:38;;;;;;;23.07;13.27;;;2.40;75.50;;;;;;5082805;28;21045;-75
2023/01/19 00:18:04;;;;;;;18.42;12.60;;;2.50;75.60;;;;;;5080459;28;20459;-76
2023/01/19 00:20:34;;;;;;;17.92;12.43;;;2.70;74.10;;;;;;5079375;28;20383;-74
2023/01/19 00:23:00;;;;;;;19.08;11.65;;;2.90;72.50;;;;;;5078913;28;20387;-76
2023/01/19 00:25:26;;;;;;;18.77;12.20;;;3.00;69.90;;;;;;5078384;28;20391;-75
2023/01/19 00:27:52;;;;;;;16.85;12.40;;;3.00;69.10;;;;;;5078939;28;20395;-75
2023/01/19 00:30:17;;;;;;;19.40;11.95;;;2.90;69.00;;;;;;5080375;28;20482;-74
2023/01/19 00:32:43;;;;;;;18.27;12.52;;;2.80;69.70;;;;;;5078469;28;20391;-74
2023/01/19 00:35:09;;;;;;;18.67;13.27;;;2.60;71.70;;;;;;5076486;28;20386;-73
2023/01/19 00:37:35;;;;;;;20.13;12.23;;;2.50;74.00;;;;;;5076382;28;20873;-75
2023/01/19 00:40:00;;;;;;;20.60;12.80;;;2.40;75.50;;;;;;5077294;28;20753;-75
2023/01/19 00:42:43;;;;;;;18.33;12.23;;;2.40;75.40;;;;;;5080125;28;20383;-74
2023/01/19 00:45:17;;;;;;;20.83;13.10;;;2.40;75.00;;;;;;5081932;28;20749;-75
2023/01/19 00:47:42;;;;;;;16.45;12.30;;;2.40;74.20;;;;;;5074151;28;20396;-74
2023/01/19 00:50:13;;;;;;;20.23;13.33;;;2.50;75.00;;;;;;5074464;28;20394;-75
2023/01/19 00:52:40;;;;;;;17.33;12.45;;;2.50;74.80;;;;;;5074553;28;20419;-75
2023/01/19 00:55:10;;;;;;;19.93;12.30;;;2.60;73.80;;;;;;5075723;28;20390;-76
2023/01/19 00:57:37;;;;;;;20.30;12.30;;;2.60;73.30;;;;;;5075703;28;20403;-73
2023/01/19 01:00:05;;;;;;;18.08;12.70;;;2.60;73.40;;;;;;5074461;28;20383;-74
2023/01/19 01:02:31;;;;;;;21.27;13.43;;;2.60;72.30;;;;;;5073979;28;20872;-75
2023/01/19 01:05:01;;;;;;;17.58;12.10;;;2.70;72.50;;;;;;5073376;28;20395;-74
2023/01/19 01:07:28;;;;;;;17.15;12.70;;;2.80;72.10;;;;;;5072387;28;20432;-73
2023/01/19 01:09:53;;;;;;;18.55;12.50;;;2.70;71.20;;;;;;5073422;28;20748;-74
2023/01/19 01:12:19;;;;;;;17.27;12.00;;;2.60;72.10;;;;;;5073056;28;20376;-74
2023/01/19 01:14:44;;;;;;;17.87;12.00;;;2.60;72.50;;;;;;5073023;28;20740;-73
2023/01/19 01:17:10;;;;;;;23.07;13.17;;;2.60;73.10;;;;;;5073492;28;20502;-75
2023/01/19 01:19:37;;;;;;;20.53;12.63;;;2.50;73.00;;;;;;5073099;28;20466;-74
2023/01/19 01:22:03;;;;;;;21.15;13.23;;;2.50;74.50;;;;;;5072856;28;20424;-73
2023/01/19 01:24:28;;;;;;;17.33;11.90;;;2.50;74.80;;;;;;5072631;28;20388;-75
2023/01/19 01:26:54;;;;;;;17.40;12.13;;;2.70;74.00;;;;;;5072178;28;20398;-73
2023/01/19 01:29:20;;;;;;;17.85;12.35;;;2.70;74.20;;;;;;5072504;28;20470;-76
2023/01/19 01:31:45;;;;;;;19.77;12.10;;;2.70;72.50;;;;;;5072377;28;20375;-74
2023/01/19 01:34:11;;;;;;;16.07;11.90;;;2.80;71.70;;;;;;5072692;28;20386;-74
2023/01/19 01:36:36;;;;;;;20.03;12.73;;;2.80;70.40;;;;;;5073181;28;20376;-74
2023/01/19 01:39:03;;;;;;;17.97;12.60;;;2.80;71.20;;;;;;5074250;28;20407;-74
2023/01/19 01:41:36;;;;;;;18.02;11.68;;;2.90;71.40;;;;;;5073032;28;20796;-76
2023/01/19 01:44:07;;;;;;;16.30;12.55;;;3.00;68.80;;;;;;5073618;28;20465;-74
2023/01/19 01:46:32;;;;;;;16.67;12.05;;;3.00;68.70;;;;;;5072755;28;20391;-75
2023/01/19 01:49:06;;;;;;;18.85;11.73;;;3.00;68.50;;;;;;5073348;28;20384;-75
2023/01/19 01:51:37;;;;;;;19.30;12.55;;;3.10;66.70;;;;;;5073028;28;20387;-74
2023/01/19 01:54:20;;;;;;;17.05;11.80;;;3.10;67.40;;;;;;5075140;28;20437;-75
2023/01/19 01:56:48;;;;;;;16.75;12.30;;;3.00;67.80;;;;;;5075512;28;20866;-74
2023/01/19 01:59:38;;;;;;;19.40;11.95;;;3.00;68.10;;;;;;5074531;28;20398;-76
2023/01/19 02:05:03;;;;;;;19.00;12.15;;;3.10;66.90;;;;;;5077927;28;20902;-74
2023/01/19 02:13:21;;;;;;;15.15;11.27;;;3.30;64.40;;;;;;5096478;28;20813;-74
2023/01/19 02:15:56;;;;;;;18.23;12.35;;;3.50;63.50;;;;;;5085774;28;20390;-74
2023/01/19 02:18:25;;;;;;;21.73;11.90;;;3.50;62.30;;;;;;5096695;28;20508;-75
2023/01/19 02:21:12;;;;;;;20.10;12.05;;;3.40;62.40;;;;;;5097928;28;20389;-71
2023/01/19 02:23:52;;;;;;;17.42;11.55;;;3.40;61.90;;;;;;5083502;28;20370;-74
2023/01/19 02:26:28;;;;;;;20.13;12.00;;;3.20;63.30;;;;;;5093970;28;20401;-74
2023/01/19 02:29:02;;;;;;;17.10;11.90;;;3.30;64.90;;;;;;5095147;28;20499;-74
2023/01/19 02:31:31;;;;;;;19.58;11.77;;;3.10;64.90;;;;;;5095016;28;20834;-74
2023/01/19 02:33:58;;;;;;;20.47;13.27;;;3.00;66.60;;;;;;5094890;28;20480;-74
2023/01/19 02:36:30;;;;;;;18.63;12.38;;;2.90;68.30;;;;;;5095777;28;20441;-73
2023/01/19 02:38:58;;;;;;;18.38;12.20;;;2.90;68.50;;;;;;5076195;28;20525;-75
2023/01/19 02:41:29;;;;;;;20.70;12.77;;;2.80;68.10;;;;;;5094304;28;20382;-75
2023/01/19 02:43:57;;;;;;;20.02;12.80;;;2.60;70.50;;;;;;5095650;28;20374;-76
2023/01/19 02:46:23;;;;;;;24.50;13.10;;;2.60;72.10;;;;;;5095871;28;20404;-74
2023/01/19 02:48:49;;;;;;;22.83;13.15;;;2.60;71.90;;;;;;5098140;28;20446;-75
2023/01/19 02:51:23;;;;;;;21.55;12.80;;;2.50;73.70;;;;;;5095951;28;20390;-76
2023/01/19 02:54:00;;;;;;;18.90;12.75;;;2.40;74.40;;;;;;5094737;28;20488;-73
2023/01/19 02:56:49;;;;;;;28.70;13.80;;;2.40;74.90;;;;;;5094255;28;20735;-75
2023/01/19 03:00:09;;;;;;;23.10;13.07;;;2.40;75.50;;;;;;5095183;28;20389;-75
2023/01/19 03:02:41;;;;;;;19.83;13.40;;;2.40;75.60;;;;;;5012450;28;20416;-74
2023/01/19 03:05:21;;;;;;;21.08;12.95;;;2.40;76.20;;;;;;5091539;28;20378;-75
2023/01/19 03:08:05;;;;;;;17.65;12.50;;;2.40;75.80;;;;;;5076230;28;20962;-74
2023/01/19 03:11:09;;;;;;;22.20;12.20;;;2.30;77.10;;;;;;5095809;28;20458;-74
2023/01/19 03:13:58;;;;;;;20.85;13.00;;;2.30;76.80;;;;;;5100908;28;20446;-74
2023/01/19 03:16:38;;;;;;;20.17;12.50;;;2.20;77.60;;;;;;5106524;28;20398;-72
2023/01/19 03:19:21;;;;;;;21.35;12.80;;;2.20;78.90;;;;;;5095826;28;20477;-77
2023/01/19 03:21:53;;;;;;;18.35;11.98;;;2.20;80.30;;;;;;5076833;28;20386;-75
2023/01/19 03:24:21;;;;;;;19.13;11.55;;;2.20;79.00;;;;;;5095272;28;20385;-75
2023/01/19 03:26:54;;;;;;;20.48;12.20;;;2.30;78.80;;;;;;5095622;28;20421;-75
2023/01/19 03:29:22;;;;;;;22.35;13.10;;;2.40;77.70;;;;;;5094783;28;20894;-74
2023/01/19 03:31:50;;;;;;;17.02;10.80;;;2.50;78.10;;;;;;5096407;28;20413;-74
2023/01/19 03:34:20;;;;;;;20.60;10.57;;;2.70;75.10;;;;;;5096548;28;20378;-74
2023/01/19 03:36:51;;;;;;;16.13;10.95;;;2.70;73.30;;;;;;5096256;28;20449;-72
2023/01/19 03:39:21;;;;;;;15.88;10.60;;;2.80;72.50;;;;;;5096708;28;20759;-73
2023/01/19 03:41:51;;;;;;;19.85;10.95;;;2.80;70.50;;;;;;5096104;28;20434;-74
2023/01/19 03:44:16;;;;;;;17.30;10.73;;;2.90;69.90;;;;;;5096442;28;20390;-73
2023/01/19 03:46:44;;;;;;;16.60;9.85;;;3.00;69.10;;;;;;5095247;28;20377;-72
2023/01/19 03:49:10;;;;;;;16.13;10.63;;;3.10;66.70;;;;;;5094496;28;20451;-73
2023/01/19 03:51:37;;;;;;;16.05;9.82;;;3.10;67.10;;;;;;5094099;28;20461;-73
2023/01/19 03:54:05;;;;;;;14.40;9.50;;;3.20;64.80;;;;;;5094409;28;20439;-72
2023/01/19 03:56:31;;;;;;;14.57;9.27;;;3.20;63.40;;;;;;5094179;28;20508;-73
2023/01/19 03:58:56;;;;;;;19.50;9.70;;;3.30;64.10;;;;;;5094175;28;20568;-74
2023/01/19 04:01:22;;;;;;;15.47;10.20;;;3.40;63.00;;;;;;5093783;28;20385;-72
2023/01/19 04:03:49;;;;;;;15.40;11.00;;;3.40;63.50;;;;;;5094233;28;20457;-73
2023/01/19 04:06:15;;;;;;;19.45;11.00;;;3.40;64.80;;;;;;5094525;28;20389;-74
2023/01/19 04:08:40;;;;;;;18.73;10.73;;;3.30;66.50;;;;;;5094357;28;20389;-73
2023/01/19 04:11:07;;;;;;;19.47;10.80;;;3.40;67.20;;;;;;5094387;28;20417;-73
2023/01/19 04:13:33;;;;;;;19.60;11.40;;;3.40;67.90;;;;;;5094223;28;20487;-74
2023/01/19 04:16:03;;;;;;;16.58;11.70;;;3.40;69.00;;;;;;5094485;28;20400;-74
2023/01/19 04:18:29;;;;;;;17.00;11.03;;;3.40;69.00;;;;;;5094005;28;20412;-73
2023/01/19 04:20:58;;;;;;;24.58;13.48;;;3.50;69.20;;;;;;5094181;28;20386;-75
2023/01/19 04:23:24;;;;;;;22.20;13.30;;;3.40;70.50;;;;;;5093652;28;20378;-73
2023/01/19 04:25:49;;;;;;;20.97;12.73;;;3.40;71.70;;;;;;5093929;28;20370;-73
2023/01/19 04:28:15;;;;;;;25.55;13.93;;;3.30;73.00;;;;;;5094475;28;20382;-72
2023/01/19 04:30:41;;;;;;;21.27;12.63;;;3.30;74.20;;;;;;5107167;28;20469;-74
2023/01/19 04:33:06;;;;;;;23.15;12.80;;;3.40;74.00;;;;;;5099216;28;20895;-73
2023/01/19 04:35:34;;;;;;;20.30;13.10;;;3.40;74.80;;;;;;5100624;28;20461;-72
2023/01/19 04:37:59;;;;;;;29.75;14.85;;;3.40;75.10;;;;;;5098798;28;20874;-72
2023/01/19 04:40:25;;;;;;;24.27;13.13;;;3.30;76.20;;;;;;5100011;28;20469;-73
2023/01/19 04:42:50;;;;;;;28.40;14.07;;;3.30;78.70;;;;;;5097183;28;20469;-74
2023/01/19 04:45:16;;;;;;;26.83;14.10;;;3.30;79.00;;;;;;5096097;28;20881;-73
2023/01/19 04:47:41;;;;;;;20.90;13.48;;;3.30;79.40;;;;;;5094874;28;20462;-74
2023/01/19 04:50:08;;;;;;;21.60;13.43;;;3.30;78.90;;;;;;5094094;28;20405;-73
2023/01/19 04:52:34;;;;;;;25.45;14.15;;;3.20;78.70;;;;;;5094710;28;20787;-74
2023/01/19 04:55:04;;;;;;;23.73;13.10;;;3.10;80.50;;;;;;5096180;28;20894;-74
2023/01/19 04:57:30;;;;;;;23.98;13.93;;;3.10;81.20;;;;;;5094510;28;20443;-72
2023/01/19 04:59:56;;;;;;;26.42;13.80;;;3.00;83.30;;;;;;5094589;28;20389;-74
2023/01/19 05:02:22;;;;;;;23.42;13.82;;;2.90;84.30;;;;;;5093606;28;20405;-74
2023/01/19 05:04:48;;;;;;;26.00;14.00;;;2.90;85.30;;;;;;5093255;28;20459;-73
2023/01/19 05:07:14;;;;;;;23.25;14.27;;;2.80;88.50;;;;;;5093599;28;20907;-72
2023/01/19 05:09:39;;;;;;;24.10;14.23;;;2.80;89.50;;;;;;5094288;28;20471;-73
2023/01/19 05:12:05;;;;;;;28.35;14.90;;;2.80;89.70;;;;;;5093079;28;20378;-73
2023/01/19 05:14:30;;;;;;;26.97;15.23;;;2.80;90.20;;;;;;5094824;28;20412;-74
2023/01/19 05:16:56;;;;;;;32.20;16.73;;;2.80;91.60;;;;;;5104953;28;20744;-74
2023/01/19 05:19:22;;;;;;;25.52;16.20;;;2.80;89.70;;;;;;5103085;28;20407;-74
2023/01/19 05:21:48;;;;;;;28.17;17.33;;;2.80;90.20;;;;;;5074618;28;20390;-74
2023/01/19 05:24:14;;;;;;;37.60;18.43;;;2.80;91.00;;;;;;5092812;28;20428;-74
2023/01/19 05:26:39;;;;;;;32.08;18.55;;;2.80;92.00;;;;;;5092207;28;20894;-74
2023/01/19 05:29:05;;;;;;;30.87;17.20;;;2.70;91.90;;;;;;5092749;28;20397;-74
2023/01/19 05:31:31;;;;;;;29.67;17.50;;;2.70;92.50;;;;;;5092075;28;20389;-73
2023/01/19 05:33:56;;;;;;;32.10;18.70;;;2.60;93.90;;;;;;5093010;28;20389;-73
2023/01/19 05:36:22;;;;;;;31.40;18.60;;;2.50;96.00;;;;;;5092118;28;20874;-74
2023/01/19 05:38:48;;;;;;;28.55;17.00;;;2.50;95.00;;;;;;5092462;28;20811;-73
2023/01/19 05:41:14;;;;;;;30.23;18.10;;;2.50;95.70;;;;;;5092484;28;20389;-74
2023/01/19 05:43:39;;;;;;;27.88;16.77;;;2.50;96.50;;;;;;5075813;28;20456;-74
2023/01/19 05:46:05;;;;;;;30.33;17.30;;;2.50;97.20;;;;;;5076583;28;20374;-74
2023/01/19 05:48:31;;;;;;;30.70;17.87;;;2.40;98.40;;;;;;5101681;28;20435;-73
2023/01/19 05:50:58;;;;;;;29.75;17.73;;;2.40;99.60;;;;;;5107071;28;20378;-75
2023/01/19 05:53:24;;;;;;;26.20;16.88;;;2.40;99.90;;;;;;5094422;28;20410;-73
2023/01/19 05:55:50;;;;;;;26.77;16.37;;;2.40;99.90;;;;;;5092599;28;20473;-73
2023/01/19 05:58:15;;;;;;;22.83;15.10;;;2.40;99.90;;;;;;5092396;28;20491;-74
2023/01/19 06:00:42;;;;;;;28.25;14.30;;;2.50;99.20;;;;;;5092476;28;20412;-74
2023/01/19 06:03:07;;;;;;;22.33;14.50;;;2.40;98.10;;;;;;5092384;28;20420;-73
2023/01/19 06:05:34;;;;;;;23.13;14.15;;;2.50;98.90;;;;;;5093386;28;20437;-73
2023/01/19 06:08:00;;;;;;;23.35;14.23;;;2.40;99.70;;;;;;5093740;28;20394;-75
2023/01/19 06:10:26;;;;;;;23.15;13.90;;;2.40;99.80;;;;;;5092604;28;20757;-73
2023/01/19 06:12:52;;;;;;;20.73;13.20;;;2.40;99.60;;;;;;5091912;28;20382;-74
2023/01/19 06:15:18;;;;;;;18.60;13.20;;;2.40;99.50;;;;;;5093194;28;20377;-73
2023/01/19 06:17:44;;;;;;;19.90;13.57;;;2.40;99.60;;;;;;5091636;28;20405;-74
2023/01/19 06:20:10;;;;;;;17.63;12.55;;;2.40;99.90;;;;;;5091258;28;20378;-75
2023/01/19 06:22:35;;;;;;;17.48;11.80;;;2.30;99.90;;;;;;5090885;28;20475;-74
2023/01/19 06:25:01;;;;;;;19.50;13.00;;;2.30;99.90;;;;;;5091513;28;20495;-73
2023/01/19 06:27:27;;;;;;;19.67;12.30;;;2.30;99.90;;;;;;5091458;28;20893;-73
2023/01/19 06:29:52;;;;;;;20.03;12.37;;;2.30;99.90;;;;;;5073101;28;20435;-72
2023/01/19 06:32:18;;;;;;;16.60;11.20;;;2.30;99.90;;;;;;5091285;28;20386;-73
2023/01/19 06:34:45;;;;;;;14.15;10.30;;;2.40;99.90;;;;;;5091651;28;20470;-73
2023/01/19 06:37:11;;;;;;;17.20;11.30;;;2.40;99.90;;;;;;5091133;28;20409;-72
2023/01/19 06:39:39;;;;;;;15.30;11.10;;;2.40;99.90;;;;;;5091484;28;20389;-73
2023/01/19 06:42:05;;;;;;;16.40;10.80;;;2.40;99.90;;;;;;5072743;28;20516;-72
2023/01/19 06:44:31;;;;;;;16.55;10.68;;;2.40;99.90;;;;;;5091303;28;20390;-73
2023/01/19 06:46:57;;;;;;;12.57;9.30;;;2.50;99.90;;;;;;5092141;28;20720;-73
2023/01/19 06:49:22;;;;;;;15.33;9.33;;;2.50;99.90;;;;;;5091684;28;20719;-73
2023/01/19 06:51:48;;;;;;;11.70;9.03;;;2.40;99.90;;;;;;5091555;28;20418;-73
2023/01/19 06:54:13;;;;;;;11.27;8.67;;;2.50;99.90;;;;;;5091559;28;20459;-73
2023/01/19 06:56:39;;;;;;;11.03;8.80;;;2.50;99.90;;;;;;5092274;28;20459;-75
2023/01/19 06:59:04;;;;;;;15.03;9.87;;;2.60;98.90;;;;;;5092064;28;20402;-73
2023/01/19 07:01:30;;;;;;;12.90;9.85;;;2.60;98.60;;;;;;5091912;28;20378;-74
2023/01/19 07:03:56;;;;;;;12.50;9.30;;;2.50;99.30;;;;;;5093794;28;20446;-73
2023/01/19 07:06:21;;;;;;;15.47;11.00;;;2.60;99.00;;;;;;5095566;28;20465;-76
2023/01/19 07:08:47;;;;;;;16.30;11.70;;;2.50;99.90;;;;;;5095600;28;20381;-72
2023/01/19 07:11:12;;;;;;;14.95;10.95;;;2.50;99.90;;;;;;5095390;28;20394;-72
2023/01/19 07:13:39;;;;;;;17.50;11.90;;;2.60;99.90;;;;;;5095622;28;20430;-74
2023/01/19 07:16:06;;;;;;;18.90;12.20;;;2.60;99.90;;;;;;5095293;28;20392;-75
2023/01/19 07:18:32;;;;;;;17.65;12.25;;;2.60;99.90;;;;;;5095025;28;20410;-74
2023/01/19 07:20:58;;;;;;;19.63;13.10;;;2.50;99.90;;;;;;5095105;28;20889;-74
2023/01/19 07:23:23;;;;;;;20.27;13.23;;;2.50;99.90;;;;;;5094837;28;20378;-73
2023/01/19 07:25:49;;;;;;;20.08;13.50;;;2.60;99.90;;;;;;5095124;28;20369;-74
2023/01/19 07:28:15;;;;;;;20.35;13.00;;;2.60;99.90;;;;;;5095254;28;20382;-72
2023/01/19 07:30:44;;;;;;;17.05;12.05;;;2.70;99.70;;;;;;5076083;28;20869;-74
2023/01/19 07:33:10;;;;;;;19.80;12.75;;;2.70;99.30;;;;;;5096879;28;20465;-73
2023/01/19 07:35:36;;;;;;;21.48;12.93;;;2.70;99.20;;;;;;5095929;28;20937;-74
2023/01/19 07:38:02;;;;;;;20.43;14.00;;;2.70;98.50;;;;;;5096555;28;20523;-74
2023/01/19 07:40:27;;;;;;;20.75;13.60;;;2.70;98.30;;;;;;5096606;28;20374;-74
2023/01/19 07:42:53;;;;;;;21.65;14.40;;;2.80;96.90;;;;;;5077122;28;20378;-73
2023/01/19 07:45:20;;;;;;;22.13;14.23;;;2.80;95.50;;;;;;5094852;28;20427;-72
2023/01/19 07:47:47;;;;;;;22.77;14.25;;;2.80;96.40;;;;;;5094778;28;20381;-72
2023/01/19 07:50:14;;;;;;;24.30;14.10;;;2.70;95.80;;;;;;5094745;28;20732;-73
2023/01/19 07:52:40;;;;;;;24.83;15.57;;;2.70;96.40;;;;;;5093843;28;20382;-74
2023/01/19 07:55:06;;;;;;;21.90;14.50;;;2.70;97.60;;;;;;5094261;28;20382;-72
2023/01/19 07:57:32;;;;;;;22.50;14.50;;;2.70;96.10;;;;;;5093895;28;20402;-73
2023/01/19 07:59:58;;;;;;;23.50;14.23;;;2.80;96.60;;;;;;5094287;28;20930;-73
2023/01/19 08:02:24;;;;;;;24.52;14.60;;;2.80;95.80;;;;;;5093997;28;20525;-75
2023/01/19 08:04:50;;;;;;;24.65;15.52;;;2.80;94.60;;;;;;5093962;28;20382;-74
2023/01/19 08:07:16;;;;;;;21.90;14.00;;;2.80;94.10;;;;;;5095915;28;20386;-73
2023/01/19 08:09:42;;;;;;;23.95;14.65;;;2.80;94.20;;;;;;5094887;28;20879;-73
2023/01/19 08:12:07;;;;;;;26.00;15.40;;;2.80;93.70;;;;;;5094279;28;20382;-74
2023/01/19 08:14:33;;;;;;;26.83;15.20;;;2.90;93.90;;;;;;5093936;28;20414;-74
2023/01/19 08:17:02;;;;;;;23.65;14.73;;;2.90;93.00;;;;;;5083995;28;20394;-73
2023/01/19 08:19:28;;;;;;;23.60;15.43;;;2.90;93.90;;;;;;5102580;28;20389;-73
2023/01/19 08:21:55;;;;;;;22.65;14.45;;;2.90;95.60;;;;;;5103605;28;20468;-72
2023/01/19 08:24:22;;;;;;;21.80;14.18;;;3.00;93.80;;;;;;5109998;28;20382;-73
2023/01/19 08:26:48;;;;;;;20.45;14.18;;;3.10;93.00;;;;;;5109412;28;20394;-74
2023/01/19 08:29:14;;;;;;;20.60;13.30;;;3.10;93.50;;;;;;5100755;28;20393;-73
2023/01/19 08:31:40;;;;;;;21.57;14.20;;;3.10;91.80;;;;;;5094902;28;20504;-72
2023/01/19 08:34:07;;;;;;;23.63;14.68;;;3.10;91.00;;;;;;5094718;28;20386;-74
2023/01/19 08:36:33;;;;;;;22.05;13.98;;;3.20;90.20;;;;;;5093954;28;20374;-72
2023/01/19 08:38:59;;;;;;;20.20;13.30;;;3.20;89.80;;;;;;5094260;28;20745;-73
2023/01/19 08:41:24;;;;;;;19.90;13.23;;;3.20;89.20;;;;;;5094358;28;20374;-75
2023/01/19 08:43:50;;;;;;;24.10;14.57;;;3.30;88.20;;;;;;5093928;28;20410;-74
2023/01/19 08:46:17;;;;;;;25.98;15.45;;;3.30;87.60;;;;;;5093397;28;20743;-73
2023/01/19 08:48:44;;;;;;;23.13;15.48;;;3.40;87.30;;;;;;5093519;28;20382;-73
2023/01/19 08:51:11;;;;;;;21.07;14.27;;;3.40;87.20;;;;;;5093573;28;20390;-73
2023/01/19 08:53:37;;;;;;;26.85;15.98;;;3.50;85.30;;;;;;5094171;28;20386;-73
2023/01/19 08:56:03;;;;;;;24.90;15.85;;;3.50;84.90;;;;;;5094653;28;20443;-74
2023/01/19 08:58:28;;;;;;;26.55;15.10;;;3.50;84.50;;;;;;5094046;28;20445;-74
2023/01/19 09:00:55;;;;;;;24.27;16.20;;;3.50;84.60;;;;;;5094265;28;20397;-73
2023/01/19 09:03:23;;;;;;;27.52;16.02;;;3.50;85.20;;;;;;5076163;28;20390;-73
2023/01/19 09:05:49;;;;;;;24.23;15.68;;;3.50;85.70;;;;;;5093266;28;20793;-71
2023/01/19 09:08:15;;;;;;;30.27;18.00;;;3.60;83.50;;;;;;5092707;28;20420;-72
2023/01/19 09:10:46;;;;;;;28.55;17.52;;;3.60;83.00;;;;;;5092646;28;20382;-74
2023/01/19 09:13:14;;;;;;;29.02;17.65;;;3.60;83.10;;;;;;5094883;28;20489;-73
2023/01/19 09:15:40;;;;;;;28.77;17.42;;;3.70;82.10;;;;;;5092577;28;20386;-73
2023/01/19 09:18:15;;;;;;;29.93;17.73;;;3.70;82.70;;;;;;5092814;28;20402;-74
2023/01/19 09:20:43;;;;;;;32.35;18.25;;;3.70;82.60;;;;;;5092367;28;20374;-74
2023/01/19 09:23:10;;;;;;;31.77;18.02;;;3.80;81.00;;;;;;5092446;28;20473;-73
2023/01/19 09:25:37;;;;;;;30.52;18.63;;;3.80;81.70;;;;;;5092496;28;20889;-73
2023/01/19 09:28:08;;;;;;;31.95;19.13;;;3.90;81.20;;;;;;5091967;28;20398;-75
2023/01/19 09:30:37;;;;;;;35.30;19.88;;;3.90;81.70;;;;;;5092744;28;20382;-74
2023/01/19 09:33:06;;;;;;;33.85;18.33;;;4.00;80.00;;;;;;5092521;28;20770;-73
2023/01/19 09:35:35;;;;;;;33.03;19.20;;;4.00;78.70;;;;;;5092815;28;20435;-74
2023/01/19 09:38:02;;;;;;;36.90;18.75;;;4.00;79.00;;;;;;5092873;28;20405;-75
2023/01/19 09:40:27;;;;;;;33.97;19.20;;;4.00;76.70;;;;;;5093385;28;20378;-74
2023/01/19 09:43:03;;;;;;;32.87;19.00;;;4.00;75.90;;;;;;5092752;28;20828;-74
2023/01/19 09:45:44;;;;;;;34.15;19.67;;;3.90;77.60;;;;;;5093098;28;20385;-75
2023/01/19 09:48:39;;;;;;;38.78;21.25;;;3.80;80.30;;;;;;5093244;28;20500;-74
2023/01/19 09:51:10;;;;;;;39.78;21.05;;;3.80;81.50;;;;;;5056429;28;20440;-75
2023/01/19 09:53:50;;;;;;;40.87;21.00;;;3.80;80.10;;;;;;5093150;28;20492;-76
2023/01/19 09:56:20;;;;;;;43.60;20.40;;;3.90;80.80;;;;;;5092632;28;20380;-73
2023/01/19 09:58:47;;;;;;;39.30;21.97;;;4.00;80.10;;;;;;5093227;28;20867;-76
2023/01/19 10:01:27;;;;;;;38.67;20.98;;;3.90;80.70;;;;;;5092435;28;20388;-74
2023/01/19 10:04:04;;;;;;;40.35;22.08;;;4.10;78.70;;;;;;5092288;28;20386;-74
2023/01/19 10:06:30;;;;;;;41.95;22.23;;;4.20;77.00;;;;;;5092035;28;20404;-74
2023/01/19 10:09:27;;;;;;;44.65;23.48;;;4.30;75.90;;;;;;5092295;28;20455;-73
2023/01/19 10:12:03;;;;;;;46.67;23.15;;;4.20;75.00;;;;;;5063249;28;20473;-75
2023/01/19 10:14:35;;;;;;;40.50;22.33;;;4.10;75.30;;;;;;5092340;28;20386;-75
2023/01/19 10:17:30;;;;;;;51.45;24.60;;;4.00;77.50;;;;;;5092483;28;20515;-74
2023/01/19 10:20:00;;;;;;;42.78;21.67;;;3.90;78.00;;;;;;5092425;28;20386;-73
2023/01/19 10:22:27;;;;;;;43.88;22.90;;;3.90;78.60;;;;;;5092437;28;20377;-75
2023/01/19 10:24:57;;;;;;;42.95;23.52;;;3.90;79.60;;;;;;5073654;28;20389;-74
2023/01/19 10:27:27;;;;;;;48.88;23.38;;;3.90;80.50;;;;;;5092599;28;20423;-74
2023/01/19 10:29:53;;;;;;;40.72;23.02;;;3.90;80.70;;;;;;5093739;28;20428;-76
2023/01/19 10:32:29;;;;;;;43.35;22.80;;;3.80;80.50;;;;;;5075431;28;20425;-75
2023/01/19 10:34:58;;;;;;;49.35;24.25;;;3.90;81.10;;;;;;5093630;28;20873;-74
2023/01/19 10:37:39;;;;;;;44.57;23.40;;;3.90;80.70;;;;;;5095614;28;20580;-75
2023/01/19 10:40:10;;;;;;;48.78;24.52;;;4.10;78.10;;;;;;5094755;28;20429;-75
2023/01/19 10:42:38;;;;;;;43.33;23.30;;;4.10;77.30;;;;;;5094256;28;20868;-72
2023/01/19 10:45:18;;;;;;;45.73;22.60;;;4.10;77.80;;;;;;5094696;28;20487;-76
2023/01/19 10:47:45;;;;;;;47.40;23.60;;;4.10;77.30;;;;;;5076350;28;20389;-74
2023/01/19 10:50:44;;;;;;;45.30;23.63;;;4.10;77.60;;;;;;5093541;28;20767;-74
2023/01/19 10:53:21;;;;;;;51.72;22.95;;;4.20;79.00;;;;;;5088273;28;20451;-75
2023/01/19 10:55:47;;;;;;;49.20;23.80;;;4.20;77.10;;;;;;5096502;28;20381;-74
2023/01/19 10:58:29;;;;;;;47.88;23.55;;;4.20;77.30;;;;;;5109904;28;20409;-75
2023/01/19 11:01:13;;;;;;;39.80;22.90;;;4.30;76.40;;;;;;5078035;28;20386;-76
2023/01/19 11:03:38;;;;;;;50.58;23.42;;;4.60;75.00;;;;;;5094404;28;20388;-75
2023/01/19 11:06:14;;;;;;;48.50;23.33;;;4.80;73.80;;;;;;5094937;28;20442;-75
2023/01/19 11:08:40;;;;;;;45.47;22.23;;;4.80;69.00;;;;;;5091942;28;20374;-75
2023/01/19 11:11:07;;;;;;;49.53;21.70;;;4.90;67.60;;;;;;5092455;28;20385;-74
2023/01/19 11:13:34;;;;;;;51.03;23.40;;;4.90;68.80;;;;;;5091561;28;20382;-76
2023/01/19 11:16:23;;;;;;;50.97;21.90;;;4.90;69.90;;;;;;5091701;28;20461;-74
2023/01/19 11:18:52;;;;;;;39.45;21.92;;;4.90;67.80;;;;;;5092355;28;20874;-75
2023/01/19 11:21:23;;;;;;;44.55;23.02;;;4.80;68.40;;;;;;5074984;28;20392;-73
2023/01/19 11:23:55;;;;;;;43.60;23.08;;;4.80;69.60;;;;;;5093286;28;20388;-74
2023/01/19 11:26:32;;;;;;;51.80;23.20;;;4.70;69.40;;;;;;5093264;28;20414;-75
2023/01/19 11:29:00;;;;;;;47.75;23.05;;;4.70;71.50;;;;;;5093543;28;20386;-75
2023/01/19 11:31:28;;;;;;;51.25;24.13;;;4.70;70.80;;;;;;5094423;28;20478;-73
2023/01/19 11:34:02;;;;;;;46.92;22.85;;;4.60;72.20;;;;;;5075365;28;20409;-76
2023/01/19 11:36:33;;;;;;;52.28;22.95;;;4.60;71.00;;;;;;5087230;28;20414;-74
2023/01/19 11:39:19;;;;;;;49.15;23.50;;;4.60;71.80;;;;;;5077002;28;20443;-73
2023/01/19 11:41:48;;;;;;;54.40;24.27;;;4.60;74.60;;;;;;5071218;28;20422;-74
2023/01/19 11:44:25;;;;;;;51.22;24.60;;;4.60;74.40;;;;;;5091978;28;20438;-75
2023/01/19 11:46:58;;;;;;;48.60;23.93;;;4.70;72.10;;;;;;5073093;28;20394;-74
2023/01/19 11:49:57;;;;;;;50.78;23.10;;;4.80;71.50;;;;;;5092101;28;20397;-77
2023/01/19 11:52:36;;;;;;;48.33;22.90;;;4.80;70.20;;;;;;5093572;28;20398;-76
2023/01/19 11:55:40;;;;;;;43.03;22.30;;;4.90;69.60;;;;;;5091250;28;20412;-74
2023/01/19 11:58:11;;;;;;;49.33;22.25;;;4.90;69.60;;;;;;5093750;28;20412;-74
2023/01/19 12:00:42;;;;;;;54.55;23.27;;;5.00;68.80;;;;;;5093765;28;20944;-75
2023/01/19 12:03:37;;;;;;;54.88;23.42;;;5.00;68.90;;;;;;5075945;28;20453;-75
2023/01/19 12:06:04;;;;;;;44.22;21.63;;;5.00;68.70;;;;;;5093868;28;20393;-73
2023/01/19 12:08:35;;;;;;;48.00;22.90;;;5.10;68.50;;;;;;5092583;28;20412;-73
2023/01/19 12:11:03;;;;;;;40.42;21.38;;;5.20;66.90;;;;;;5091631;28;20732;-73
2023/01/19 12:13:31;;;;;;;45.20;21.60;;;5.20;67.30;;;;;;5092267;28;20441;-73
2023/01/19 12:16:05;;;;;;;43.30;21.42;;;5.20;67.60;;;;;;5073446;28;20390;-73
2023/01/19 12:18:42;;;;;;;45.20;21.27;;;5.20;67.50;;;;;;5091794;28;20895;-74
2023/01/19 12:21:08;;;;;;;52.27;22.60;;;5.20;67.20;;;;;;5092948;28;20886;-76
2023/01/19 12:24:11;;;;;;;39.40;20.80;;;5.20;67.00;;;;;;5093151;28;20385;-76
2023/01/19 12:26:57;;;;;;;46.88;21.08;;;5.20;67.40;;;;;;5092639;28;20401;-75
2023/01/19 12:29:28;;;;;;;39.67;21.77;;;5.10;67.80;;;;;;5091757;28;20382;-73
2023/01/19 12:32:12;;;;;;;46.78;20.63;;;5.10;69.70;;;;;;5075239;28;20407;-74
2023/01/19 12:34:48;;;;;;;41.42;21.35;;;5.20;65.80;;;;;;5066304;28;20895;-74
2023/01/19 12:37:29;;;;;;;42.67;20.20;;;5.20;66.70;;;;;;5072948;28;20390;-76
2023/01/19 12:39:57;;;;;;;44.20;21.08;;;5.30;65.60;;;;;;5091479;28;20415;-74
2023/01/19 12:42:25;;;;;;;38.55;20.10;;;5.30;65.30;;;;;;5073374;28;20401;-73
2023/01/19 12:45:11;;;;;;;42.95;20.85;;;5.30;64.70;;;;;;5091409;28;20390;-74
2023/01/19 12:47:37;;;;;;;35.90;20.25;;;5.40;64.90;;;;;;5091349;28;20417;-75
2023/01/19 12:50:10;;;;;;;40.40;19.63;;;5.50;65.40;;;;;;5091539;28;20422;-74
2023/01/19 12:52:50;;;;;;;33.53;18.95;;;5.70;61.90;;;;;;5090892;28;20454;-74
2023/01/19 12:55:30;;;;;;;39.35;19.35;;;5.80;61.20;;;;;;5089627;28;20438;-75
2023/01/19 12:58:21;;;;;;;35.28;18.30;;;5.90;62.20;;;;;;5091638;28;20409;-75
2023/01/19 13:00:49;;;;;;;46.60;18.38;;;5.90;58.30;;;;;;5090964;28;20804;-74